Mexia, Alabama
Current Conditions -  °F | °C
As of 11:53 PM on Thursday 27 Nov 2014 (Local Time) from KGZH Reporting Station
Clear Clear  
Wind Chill: 34°   Ceiling: Unl
Heat Index: 34°   Visibility: 10mi
Dew Point: 30°   Wind: 0mph
Humidity: 85%   Direction: NA
Pressure: 30.44"   Gusts: NA
Location:  31.51°N, 87.39°W
Report Text: KGZH 280553Z AUTO 00000KT 10SM CLR 01/M01 A3044 RMK AO2 SLP308 T00111011 10083 20011 401390011 58003
Loading
Personal Weather Stations






























Interactive Weather Map New forecast layout! Learn more

10-Day Weather Forecast

Advertisements
Track Severe Weather on mobile